sensor_id;sensor_type;location;lat;lon;timestamp;P1;durP1;ratioP1;P2;durP2;ratioP2
30647;SDS011;17683;53.360;9.736;2022-09-28T00:02:06;3.00;;;2.63;;
30647;SDS011;17683;53.360;9.736;2022-09-28T00:04:32;2.65;;;1.83;;
30647;SDS011;17683;53.360;9.736;2022-09-28T00:06:58;2.72;;;1.83;;
30647;SDS011;17683;53.360;9.736;2022-09-28T00:09:24;2.20;;;1.98;;
30647;SDS011;17683;53.360;9.736;2022-09-28T00:11:50;2.50;;;1.90;;
30647;SDS011;17683;53.360;9.736;2022-09-28T00:14:18;6.07;;;2.50;;
30647;SDS011;17683;53.360;9.736;2022-09-28T00:16:44;4.55;;;2.05;;
30647;SDS011;17683;53.360;9.736;2022-09-28T00:19:10;2.78;;;1.90;;
30647;SDS011;17683;53.360;9.736;2022-09-28T00:21:37;2.63;;;2.05;;
30647;SDS011;17683;53.360;9.736;2022-09-28T00:24:04;3.67;;;2.00;;
30647;SDS011;17683;53.360;9.736;2022-09-28T00:26:51;2.20;;;2.00;;
30647;SDS011;17683;53.360;9.736;2022-09-28T00:29:28;2.67;;;2.05;;
30647;SDS011;17683;53.360;9.736;2022-09-28T00:32:06;4.80;;;2.17;;
30647;SDS011;17683;53.360;9.736;2022-09-28T00:34:38;5.15;;;2.33;;
30647;SDS011;17683;53.360;9.736;2022-09-28T00:37:06;1.98;;;1.77;;
30647;SDS011;17683;53.360;9.736;2022-09-28T00:39:33;2.90;;;2.10;;
30647;SDS011;17683;53.360;9.736;2022-09-28T00:42:00;4.00;;;2.22;;
30647;SDS011;17683;53.360;9.736;2022-09-28T00:44:36;4.75;;;2.42;;
30647;SDS011;17683;53.360;9.736;2022-09-28T00:55:18;2.25;;;1.88;;
30647;SDS011;17683;53.360;9.736;2022-09-28T00:57:50;2.35;;;1.83;;
30647;SDS011;17683;53.360;9.736;2022-09-28T01:00:20;2.78;;;2.40;;
30647;SDS011;17683;53.360;9.736;2022-09-28T01:02:46;4.03;;;2.83;;
30647;SDS011;17683;53.360;9.736;2022-09-28T01:05:12;3.20;;;2.58;;
30647;SDS011;17683;53.360;9.736;2022-09-28T01:07:38;2.75;;;2.53;;
30647;SDS011;17683;53.360;9.736;2022-09-28T01:10:05;6.07;;;2.97;;
30647;SDS011;17683;53.360;9.736;2022-09-28T01:12:32;3.03;;;2.72;;
30647;SDS011;17683;53.360;9.736;2022-09-28T01:14:57;2.47;;;2.28;;
30647;SDS011;17683;53.360;9.736;2022-09-28T01:17:25;5.30;;;2.70;;
30647;SDS011;17683;53.360;9.736;2022-09-28T01:25:53;8.25;;;3.17;;
30647;SDS011;17683;53.360;9.736;2022-09-28T01:28:27;5.30;;;3.85;;
30647;SDS011;17683;53.360;9.736;2022-09-28T01:33:54;3.92;;;3.53;;
30647;SDS011;17683;53.360;9.736;2022-09-28T01:36:32;6.15;;;4.13;;
30647;SDS011;17683;53.360;9.736;2022-09-28T01:39:12;5.00;;;4.18;;
30647;SDS011;17683;53.360;9.736;2022-09-28T01:41:42;5.65;;;4.25;;
30647;SDS011;17683;53.360;9.736;2022-09-28T01:44:12;5.07;;;4.57;;
30647;SDS011;17683;53.360;9.736;2022-09-28T01:46:42;8.90;;;4.70;;
30647;SDS011;17683;53.360;9.736;2022-09-28T01:49:16;5.43;;;4.35;;
30647;SDS011;17683;53.360;9.736;2022-09-28T01:51:53;4.70;;;3.83;;
30647;SDS011;17683;53.360;9.736;2022-09-28T01:54:38;11.02;;;5.18;;
30647;SDS011;17683;53.360;9.736;2022-09-28T02:00:21;7.78;;;4.43;;
30647;SDS011;17683;53.360;9.736;2022-09-28T02:02:54;6.45;;;4.60;;
30647;SDS011;17683;53.360;9.736;2022-09-28T02:08:32;5.50;;;4.65;;
30647;SDS011;17683;53.360;9.736;2022-09-28T02:11:12;7.05;;;4.60;;
30647;SDS011;17683;53.360;9.736;2022-09-28T02:13:42;8.82;;;4.85;;
30647;SDS011;17683;53.360;9.736;2022-09-28T02:19:09;5.57;;;4.60;;
30647;SDS011;17683;53.360;9.736;2022-09-28T02:24:22;4.82;;;4.35;;
30647;SDS011;17683;53.360;9.736;2022-09-28T02:27:02;19.58;;;5.15;;
30647;SDS011;17683;53.360;9.736;2022-09-28T02:32:12;5.40;;;4.80;;
30647;SDS011;17683;53.360;9.736;2022-09-28T02:34:38;5.68;;;4.93;;
30647;SDS011;17683;53.360;9.736;2022-09-28T02:37:04;8.35;;;5.50;;
30647;SDS011;17683;53.360;9.736;2022-09-28T02:39:30;6.03;;;5.28;;
30647;SDS011;17683;53.360;9.736;2022-09-28T02:45:03;6.38;;;4.75;;
30647;SDS011;17683;53.360;9.736;2022-09-28T02:59:26;26.20;;;6.93;;
30647;SDS011;17683;53.360;9.736;2022-09-28T03:02:30;11.10;;;5.78;;
30647;SDS011;17683;53.360;9.736;2022-09-28T03:11:29;13.10;;;5.32;;
30647;SDS011;17683;53.360;9.736;2022-09-28T03:13:42;9.60;;;5.57;;
30647;SDS011;17683;53.360;9.736;2022-09-28T03:16:12;9.65;;;5.63;;
30647;SDS011;17683;53.360;9.736;2022-09-28T03:18:40;7.50;;;5.47;;
30647;SDS011;17683;53.360;9.736;2022-09-28T03:21:06;7.68;;;5.53;;
30647;SDS011;17683;53.360;9.736;2022-09-28T03:23:33;12.13;;;5.10;;
30647;SDS011;17683;53.360;9.736;2022-09-28T03:25:59;9.85;;;6.00;;
30647;SDS011;17683;53.360;9.736;2022-09-28T03:28:25;8.15;;;5.38;;
30647;SDS011;17683;53.360;9.736;2022-09-28T03:30:52;10.05;;;5.78;;
30647;SDS011;17683;53.360;9.736;2022-09-28T03:33:18;14.25;;;6.22;;
30647;SDS011;17683;53.360;9.736;2022-09-28T03:35:47;42.67;;;7.13;;
30647;SDS011;17683;53.360;9.736;2022-09-28T03:38:14;45.90;;;8.07;;
30647;SDS011;17683;53.360;9.736;2022-09-28T03:40:41;8.68;;;5.95;;
30647;SDS011;17683;53.360;9.736;2022-09-28T03:43:06;11.05;;;6.38;;
30647;SDS011;17683;53.360;9.736;2022-09-28T03:45:32;8.55;;;6.38;;
30647;SDS011;17683;53.360;9.736;2022-09-28T03:47:58;9.85;;;6.43;;
30647;SDS011;17683;53.360;9.736;2022-09-28T03:50:24;11.00;;;6.72;;
30647;SDS011;17683;53.360;9.736;2022-09-28T03:52:50;14.25;;;6.95;;
30647;SDS011;17683;53.360;9.736;2022-09-28T03:55:16;15.75;;;7.30;;
30647;SDS011;17683;53.360;9.736;2022-09-28T03:57:41;38.15;;;7.63;;
30647;SDS011;17683;53.360;9.736;2022-09-28T04:00:07;18.73;;;7.47;;
30647;SDS011;17683;53.360;9.736;2022-09-28T04:02:34;14.00;;;6.70;;
30647;SDS011;17683;53.360;9.736;2022-09-28T04:05:00;17.80;;;6.43;;
30647;SDS011;17683;53.360;9.736;2022-09-28T04:07:26;6.75;;;6.05;;
30647;SDS011;17683;53.360;9.736;2022-09-28T04:09:51;11.10;;;6.53;;
30647;SDS011;17683;53.360;9.736;2022-09-28T04:12:17;41.80;;;8.15;;
30647;SDS011;17683;53.360;9.736;2022-09-28T04:14:43;86.45;;;8.65;;
30647;SDS011;17683;53.360;9.736;2022-09-28T04:17:08;17.98;;;5.85;;
30647;SDS011;17683;53.360;9.736;2022-09-28T04:19:34;20.73;;;7.55;;
30647;SDS011;17683;53.360;9.736;2022-09-28T04:22:00;8.90;;;6.03;;
30647;SDS011;17683;53.360;9.736;2022-09-28T04:24:26;11.23;;;6.43;;
30647;SDS011;17683;53.360;9.736;2022-09-28T04:26:52;14.05;;;6.63;;
30647;SDS011;17683;53.360;9.736;2022-09-28T04:29:37;28.08;;;7.45;;
30647;SDS011;17683;53.360;9.736;2022-09-28T04:32:07;31.25;;;7.43;;
30647;SDS011;17683;53.360;9.736;2022-09-28T04:34:34;51.83;;;8.60;;
30647;SDS011;17683;53.360;9.736;2022-09-28T04:37:00;6.95;;;5.65;;
30647;SDS011;17683;53.360;9.736;2022-09-28T04:39:25;8.82;;;6.03;;
30647;SDS011;17683;53.360;9.736;2022-09-28T04:41:51;26.38;;;6.90;;
30647;SDS011;17683;53.360;9.736;2022-09-28T04:44:17;9.68;;;6.60;;
30647;SDS011;17683;53.360;9.736;2022-09-28T04:46:42;11.10;;;6.88;;
30647;SDS011;17683;53.360;9.736;2022-09-28T04:49:08;8.40;;;6.95;;
30647;SDS011;17683;53.360;9.736;2022-09-28T04:51:35;34.03;;;7.50;;
30647;SDS011;17683;53.360;9.736;2022-09-28T04:54:00;19.25;;;7.38;;
30647;SDS011;17683;53.360;9.736;2022-09-28T04:56:26;28.40;;;7.70;;
30647;SDS011;17683;53.360;9.736;2022-09-28T04:58:52;8.68;;;6.55;;
30647;SDS011;17683;53.360;9.736;2022-09-28T05:01:18;41.28;;;10.50;;
30647;SDS011;17683;53.360;9.736;2022-09-28T05:03:47;14.00;;;7.47;;
30647;SDS011;17683;53.360;9.736;2022-09-28T05:06:13;19.67;;;8.43;;
30647;SDS011;17683;53.360;9.736;2022-09-28T05:08:40;14.57;;;8.93;;
30647;SDS011;17683;53.360;9.736;2022-09-28T05:11:07;38.42;;;8.55;;
30647;SDS011;17683;53.360;9.736;2022-09-28T05:13:38;9.73;;;6.47;;
30647;SDS011;17683;53.360;9.736;2022-09-28T05:16:09;9.82;;;7.20;;
30647;SDS011;17683;53.360;9.736;2022-09-28T05:18:36;10.10;;;7.30;;
30647;SDS011;17683;53.360;9.736;2022-09-28T05:21:03;34.67;;;9.77;;
30647;SDS011;17683;53.360;9.736;2022-09-28T05:23:33;11.77;;;7.68;;
30647;SDS011;17683;53.360;9.736;2022-09-28T05:26:01;11.82;;;7.75;;
30647;SDS011;17683;53.360;9.736;2022-09-28T05:28:28;20.75;;;7.55;;
30647;SDS011;17683;53.360;9.736;2022-09-28T05:31:01;14.68;;;8.20;;
30647;SDS011;17683;53.360;9.736;2022-09-28T05:33:29;22.17;;;8.35;;
30647;SDS011;17683;53.360;9.736;2022-09-28T05:35:56;23.17;;;8.07;;
30647;SDS011;17683;53.360;9.736;2022-09-28T05:38:22;16.33;;;7.65;;
30647;SDS011;17683;53.360;9.736;2022-09-28T05:40:48;17.55;;;8.35;;
30647;SDS011;17683;53.360;9.736;2022-09-28T05:43:14;31.15;;;8.13;;
30647;SDS011;17683;53.360;9.736;2022-09-28T05:45:40;30.15;;;9.85;;
30647;SDS011;17683;53.360;9.736;2022-09-28T05:48:06;33.10;;;8.45;;
30647;SDS011;17683;53.360;9.736;2022-09-28T05:50:31;13.32;;;8.05;;
30647;SDS011;17683;53.360;9.736;2022-09-28T05:53:02;30.83;;;9.55;;
30647;SDS011;17683;53.360;9.736;2022-09-28T05:55:33;18.23;;;7.30;;
30647;SDS011;17683;53.360;9.736;2022-09-28T05:58:01;79.95;;;11.00;;
30647;SDS011;17683;53.360;9.736;2022-09-28T06:00:29;15.05;;;7.53;;
30647;SDS011;17683;53.360;9.736;2022-09-28T06:03:00;23.38;;;9.00;;
30647;SDS011;17683;53.360;9.736;2022-09-28T06:05:28;19.60;;;8.25;;
30647;SDS011;17683;53.360;9.736;2022-09-28T06:07:54;17.55;;;9.10;;
30647;SDS011;17683;53.360;9.736;2022-09-28T06:10:21;23.92;;;8.80;;
30647;SDS011;17683;53.360;9.736;2022-09-28T06:12:50;10.20;;;7.63;;
30647;SDS011;17683;53.360;9.736;2022-09-28T06:15:20;13.05;;;8.15;;
30647;SDS011;17683;53.360;9.736;2022-09-28T06:17:46;15.85;;;9.05;;
30647;SDS011;17683;53.360;9.736;2022-09-28T06:20:12;15.38;;;8.60;;
30647;SDS011;17683;53.360;9.736;2022-09-28T06:22:38;20.27;;;8.65;;
30647;SDS011;17683;53.360;9.736;2022-09-28T06:25:04;20.67;;;8.65;;
30647;SDS011;17683;53.360;9.736;2022-09-28T06:27:31;18.58;;;8.07;;
30647;SDS011;17683;53.360;9.736;2022-09-28T06:29:57;18.98;;;8.35;;
30647;SDS011;17683;53.360;9.736;2022-09-28T06:32:26;57.13;;;10.77;;
30647;SDS011;17683;53.360;9.736;2022-09-28T06:34:53;11.75;;;6.90;;
30647;SDS011;17683;53.360;9.736;2022-09-28T06:37:19;47.90;;;9.02;;
30647;SDS011;17683;53.360;9.736;2022-09-28T06:39:45;81.45;;;9.77;;
30647;SDS011;17683;53.360;9.736;2022-09-28T06:42:10;43.83;;;9.23;;
30647;SDS011;17683;53.360;9.736;2022-09-28T06:44:36;27.48;;;9.07;;
30647;SDS011;17683;53.360;9.736;2022-09-28T06:47:02;41.03;;;9.82;;
30647;SDS011;17683;53.360;9.736;2022-09-28T06:49:27;28.10;;;9.35;;
30647;SDS011;17683;53.360;9.736;2022-09-28T06:51:54;47.20;;;11.38;;
30647;SDS011;17683;53.360;9.736;2022-09-28T06:54:20;10.82;;;7.53;;
30647;SDS011;17683;53.360;9.736;2022-09-28T06:56:50;36.20;;;9.05;;
30647;SDS011;17683;53.360;9.736;2022-09-28T06:59:17;24.67;;;8.05;;
30647;SDS011;17683;53.360;9.736;2022-09-28T07:01:42;19.70;;;8.30;;
30647;SDS011;17683;53.360;9.736;2022-09-28T07:04:08;14.40;;;8.70;;
30647;SDS011;17683;53.360;9.736;2022-09-28T07:06:34;48.08;;;10.98;;
30647;SDS011;17683;53.360;9.736;2022-09-28T07:09:00;10.90;;;7.25;;
30647;SDS011;17683;53.360;9.736;2022-09-28T07:11:30;33.42;;;10.70;;
30647;SDS011;17683;53.360;9.736;2022-09-28T07:14:03;9.07;;;7.13;;
30647;SDS011;17683;53.360;9.736;2022-09-28T07:16:29;22.92;;;9.60;;
30647;SDS011;17683;53.360;9.736;2022-09-28T07:18:55;30.15;;;8.85;;
30647;SDS011;17683;53.360;9.736;2022-09-28T07:21:21;28.88;;;9.63;;
30647;SDS011;17683;53.360;9.736;2022-09-28T07:23:46;38.38;;;8.93;;
30647;SDS011;17683;53.360;9.736;2022-09-28T07:26:12;11.52;;;8.43;;
30647;SDS011;17683;53.360;9.736;2022-09-28T07:28:40;13.98;;;8.35;;
30647;SDS011;17683;53.360;9.736;2022-09-28T07:31:07;26.55;;;10.85;;
30647;SDS011;17683;53.360;9.736;2022-09-28T07:33:33;18.52;;;9.27;;
30647;SDS011;17683;53.360;9.736;2022-09-28T07:35:59;30.73;;;9.07;;
30647;SDS011;17683;53.360;9.736;2022-09-28T07:38:30;14.70;;;8.88;;
30647;SDS011;17683;53.360;9.736;2022-09-28T07:40:59;12.57;;;9.60;;
30647;SDS011;17683;53.360;9.736;2022-09-28T07:43:38;11.07;;;8.52;;
30647;SDS011;17683;53.360;9.736;2022-09-28T07:46:04;26.00;;;10.20;;
30647;SDS011;17683;53.360;9.736;2022-09-28T07:48:36;68.03;;;12.75;;
30647;SDS011;17683;53.360;9.736;2022-09-28T07:51:06;30.55;;;10.02;;
30647;SDS011;17683;53.360;9.736;2022-09-28T07:53:32;33.72;;;10.63;;
30647;SDS011;17683;53.360;9.736;2022-09-28T07:56:00;15.57;;;10.80;;
30647;SDS011;17683;53.360;9.736;2022-09-28T07:58:31;128.40;;;17.13;;
30647;SDS011;17683;53.360;9.736;2022-09-28T08:00:58;64.05;;;14.98;;
30647;SDS011;17683;53.360;9.736;2022-09-28T08:03:28;17.63;;;12.35;;
30647;SDS011;17683;53.360;9.736;2022-09-28T08:05:57;20.80;;;12.05;;
30647;SDS011;17683;53.360;9.736;2022-09-28T08:08:24;13.10;;;10.30;;
30647;SDS011;17683;53.360;9.736;2022-09-28T08:10:51;23.42;;;13.82;;
30647;SDS011;17683;53.360;9.736;2022-09-28T08:13:17;15.45;;;11.15;;
30647;SDS011;17683;53.360;9.736;2022-09-28T08:15:44;38.05;;;13.93;;
30647;SDS011;17683;53.360;9.736;2022-09-28T08:18:12;16.65;;;12.32;;
30647;SDS011;17683;53.360;9.736;2022-09-28T08:20:38;16.08;;;11.68;;
30647;SDS011;17683;53.360;9.736;2022-09-28T08:23:22;15.13;;;10.57;;
30647;SDS011;17683;53.360;9.736;2022-09-28T08:25:49;23.52;;;14.43;;
30647;SDS011;17683;53.360;9.736;2022-09-28T08:28:17;14.48;;;11.20;;
30647;SDS011;17683;53.360;9.736;2022-09-28T08:30:44;15.20;;;11.32;;
30647;SDS011;17683;53.360;9.736;2022-09-28T08:33:11;18.80;;;12.90;;
30647;SDS011;17683;53.360;9.736;2022-09-28T08:35:37;20.27;;;13.52;;
30647;SDS011;17683;53.360;9.736;2022-09-28T08:38:04;15.57;;;10.57;;
30647;SDS011;17683;53.360;9.736;2022-09-28T08:40:32;17.95;;;13.63;;
30647;SDS011;17683;53.360;9.736;2022-09-28T08:43:09;20.92;;;13.95;;
30647;SDS011;17683;53.360;9.736;2022-09-28T08:46:00;23.07;;;12.87;;
30647;SDS011;17683;53.360;9.736;2022-09-28T08:48:36;27.20;;;14.93;;
30647;SDS011;17683;53.360;9.736;2022-09-28T08:51:11;20.15;;;14.73;;
30647;SDS011;17683;53.360;9.736;2022-09-28T08:56:20;26.13;;;13.73;;
30647;SDS011;17683;53.360;9.736;2022-09-28T08:58:56;37.25;;;15.45;;
30647;SDS011;17683;53.360;9.736;2022-09-28T09:01:28;15.18;;;12.07;;
30647;SDS011;17683;53.360;9.736;2022-09-28T09:03:58;18.65;;;12.88;;
30647;SDS011;17683;53.360;9.736;2022-09-28T09:06:32;21.58;;;14.93;;
30647;SDS011;17683;53.360;9.736;2022-09-28T09:20:55;21.85;;;14.70;;
30647;SDS011;17683;53.360;9.736;2022-09-28T09:25:57;24.83;;;16.90;;
30647;SDS011;17683;53.360;9.736;2022-09-28T09:48:57;21.98;;;15.13;;
30647;SDS011;17683;53.360;9.736;2022-09-28T09:51:36;22.80;;;14.35;;
30647;SDS011;17683;53.360;9.736;2022-09-28T09:57:14;20.90;;;15.00;;
30647;SDS011;17683;53.360;9.736;2022-09-28T09:59:45;21.48;;;14.50;;
30647;SDS011;17683;53.360;9.736;2022-09-28T10:05:13;19.90;;;14.40;;
30647;SDS011;17683;53.360;9.736;2022-09-28T10:08:00;17.88;;;13.32;;
30647;SDS011;17683;53.360;9.736;2022-09-28T10:10:30;20.63;;;14.63;;
30647;SDS011;17683;53.360;9.736;2022-09-28T10:13:01;18.20;;;14.05;;
30647;SDS011;17683;53.360;9.736;2022-09-28T10:15:29;18.35;;;13.95;;
30647;SDS011;17683;53.360;9.736;2022-09-28T10:18:00;22.27;;;17.08;;
30647;SDS011;17683;53.360;9.736;2022-09-28T10:20:32;21.90;;;15.07;;
30647;SDS011;17683;53.360;9.736;2022-09-28T10:23:02;18.75;;;14.88;;
30647;SDS011;17683;53.360;9.736;2022-09-28T10:25:30;24.17;;;15.45;;
30647;SDS011;17683;53.360;9.736;2022-09-28T10:27:58;18.80;;;14.65;;
30647;SDS011;17683;53.360;9.736;2022-09-28T10:30:27;18.52;;;14.43;;
30647;SDS011;17683;53.360;9.736;2022-09-28T10:32:53;19.15;;;14.82;;
30647;SDS011;17683;53.360;9.736;2022-09-28T10:35:24;20.58;;;15.65;;
30647;SDS011;17683;53.360;9.736;2022-09-28T10:45:45;17.08;;;12.85;;
30647;SDS011;17683;53.360;9.736;2022-09-28T10:48:16;15.73;;;11.57;;
30647;SDS011;17683;53.360;9.736;2022-09-28T10:51:05;16.58;;;12.13;;
30647;SDS011;17683;53.360;9.736;2022-09-28T10:53:32;17.50;;;13.73;;
30647;SDS011;17683;53.360;9.736;2022-09-28T10:56:20;17.17;;;12.75;;
30647;SDS011;17683;53.360;9.736;2022-09-28T10:58:47;20.30;;;13.63;;
30647;SDS011;17683;53.360;9.736;2022-09-28T11:01:17;17.65;;;14.20;;
30647;SDS011;17683;53.360;9.736;2022-09-28T11:03:47;16.33;;;12.40;;
30647;SDS011;17683;53.360;9.736;2022-09-28T11:06:22;17.83;;;12.82;;
30647;SDS011;17683;53.360;9.736;2022-09-28T11:11:57;19.05;;;14.85;;
30647;SDS011;17683;53.360;9.736;2022-09-28T11:14:34;21.20;;;15.18;;
30647;SDS011;17683;53.360;9.736;2022-09-28T11:17:29;22.23;;;15.35;;
30647;SDS011;17683;53.360;9.736;2022-09-28T11:19:56;20.67;;;14.32;;
30647;SDS011;17683;53.360;9.736;2022-09-28T11:22:45;20.58;;;14.27;;
30647;SDS011;17683;53.360;9.736;2022-09-28T11:27:40;22.88;;;17.08;;
30647;SDS011;17683;53.360;9.736;2022-09-28T11:33:16;22.83;;;16.40;;
30647;SDS011;17683;53.360;9.736;2022-09-28T11:38:51;21.38;;;14.95;;
30647;SDS011;17683;53.360;9.736;2022-09-28T11:44:16;25.17;;;16.93;;
30647;SDS011;17683;53.360;9.736;2022-09-28T11:47:10;20.58;;;15.93;;
30647;SDS011;17683;53.360;9.736;2022-09-28T11:49:42;21.92;;;15.45;;
30647;SDS011;17683;53.360;9.736;2022-09-28T11:54:56;19.25;;;14.35;;
30647;SDS011;17683;53.360;9.736;2022-09-28T11:57:35;13.82;;;11.73;;
30647;SDS011;17683;53.360;9.736;2022-09-28T12:02:57;18.95;;;14.60;;
30647;SDS011;17683;53.360;9.736;2022-09-28T12:08:29;20.75;;;14.90;;
30647;SDS011;17683;53.360;9.736;2022-09-28T12:13:48;20.95;;;16.05;;
30647;SDS011;17683;53.360;9.736;2022-09-28T12:16:34;21.95;;;17.67;;
30647;SDS011;17683;53.360;9.736;2022-09-28T12:19:14;17.27;;;14.30;;
30647;SDS011;17683;53.360;9.736;2022-09-28T12:21:48;19.40;;;15.68;;
30647;SDS011;17683;53.360;9.736;2022-09-28T12:26:53;21.48;;;15.82;;
30647;SDS011;17683;53.360;9.736;2022-09-28T12:29:43;17.52;;;13.90;;
30647;SDS011;17683;53.360;9.736;2022-09-28T12:35:47;14.80;;;13.25;;
30647;SDS011;17683;53.360;9.736;2022-09-28T12:46:48;21.83;;;14.25;;
30647;SDS011;17683;53.360;9.736;2022-09-28T12:51:57;18.30;;;15.40;;
30647;SDS011;17683;53.360;9.736;2022-09-28T12:57:34;19.80;;;14.68;;
30647;SDS011;17683;53.360;9.736;2022-09-28T13:00:19;18.48;;;14.95;;
30647;SDS011;17683;53.360;9.736;2022-09-28T13:16:45;15.05;;;11.82;;
30647;SDS011;17683;53.360;9.736;2022-09-28T13:22:02;14.93;;;11.15;;
30647;SDS011;17683;53.360;9.736;2022-09-28T13:24:25;15.55;;;11.60;;
30647;SDS011;17683;53.360;9.736;2022-09-28T13:26:55;14.00;;;9.98;;
30647;SDS011;17683;53.360;9.736;2022-09-28T13:29:28;17.85;;;13.35;;
30647;SDS011;17683;53.360;9.736;2022-09-28T13:31:56;14.60;;;10.77;;
30647;SDS011;17683;53.360;9.736;2022-09-28T13:34:25;20.08;;;12.43;;
30647;SDS011;17683;53.360;9.736;2022-09-28T13:39:50;17.02;;;12.18;;
30647;SDS011;17683;53.360;9.736;2022-09-28T13:45:24;16.48;;;12.05;;
30647;SDS011;17683;53.360;9.736;2022-09-28T13:48:15;15.55;;;12.57;;
30647;SDS011;17683;53.360;9.736;2022-09-28T13:53:40;13.85;;;11.90;;
30647;SDS011;17683;53.360;9.736;2022-09-28T13:57:27;13.27;;;10.98;;
30647;SDS011;17683;53.360;9.736;2022-09-28T13:59:27;14.63;;;11.23;;
30647;SDS011;17683;53.360;9.736;2022-09-28T14:02:02;13.25;;;10.57;;
30647;SDS011;17683;53.360;9.736;2022-09-28T14:07:23;16.42;;;13.70;;
30647;SDS011;17683;53.360;9.736;2022-09-28T14:12:51;12.52;;;9.50;;
30647;SDS011;17683;53.360;9.736;2022-09-28T14:18:11;16.60;;;11.00;;
30647;SDS011;17683;53.360;9.736;2022-09-28T14:26:29;12.75;;;8.50;;
30647;SDS011;17683;53.360;9.736;2022-09-28T14:29:31;10.75;;;8.60;;
30647;SDS011;17683;53.360;9.736;2022-09-28T14:34:55;11.00;;;8.85;;
30647;SDS011;17683;53.360;9.736;2022-09-28T14:40:14;17.17;;;9.45;;
30647;SDS011;17683;53.360;9.736;2022-09-28T14:44:02;9.85;;;7.53;;
30647;SDS011;17683;53.360;9.736;2022-09-28T14:48:46;12.60;;;8.70;;
30647;SDS011;17683;53.360;9.736;2022-09-28T14:54:37;11.05;;;8.88;;
30647;SDS011;17683;53.360;9.736;2022-09-28T14:59:17;14.82;;;8.13;;
30647;SDS011;17683;53.360;9.736;2022-09-28T15:04:45;12.38;;;7.07;;
30647;SDS011;17683;53.360;9.736;2022-09-28T15:07:27;14.77;;;10.10;;
30647;SDS011;17683;53.360;9.736;2022-09-28T15:09:58;21.60;;;11.80;;
30647;SDS011;17683;53.360;9.736;2022-09-28T15:12:26;13.18;;;10.63;;
30647;SDS011;17683;53.360;9.736;2022-09-28T15:17:33;12.48;;;9.63;;
30647;SDS011;17683;53.360;9.736;2022-09-28T15:22:56;10.95;;;8.90;;
30647;SDS011;17683;53.360;9.736;2022-09-28T15:25:24;13.20;;;9.70;;
30647;SDS011;17683;53.360;9.736;2022-09-28T15:28:01;11.18;;;8.35;;
30647;SDS011;17683;53.360;9.736;2022-09-28T15:30:41;10.93;;;9.20;;
30647;SDS011;17683;53.360;9.736;2022-09-28T15:33:20;10.88;;;9.02;;
30647;SDS011;17683;53.360;9.736;2022-09-28T15:36:12;9.63;;;7.88;;
30647;SDS011;17683;53.360;9.736;2022-09-28T15:38:52;9.10;;;7.60;;
30647;SDS011;17683;53.360;9.736;2022-09-28T15:41:19;10.45;;;8.23;;
30647;SDS011;17683;53.360;9.736;2022-09-28T15:46:46;9.10;;;6.80;;
30647;SDS011;17683;53.360;9.736;2022-09-28T15:49:21;7.53;;;6.70;;
30647;SDS011;17683;53.360;9.736;2022-09-28T15:51:56;10.38;;;8.13;;
30647;SDS011;17683;53.360;9.736;2022-09-28T15:54:48;9.18;;;7.82;;
30647;SDS011;17683;53.360;9.736;2022-09-28T15:59:57;9.88;;;7.82;;
30647;SDS011;17683;53.360;9.736;2022-09-28T16:02:25;11.90;;;9.73;;
30647;SDS011;17683;53.360;9.736;2022-09-28T16:04:52;12.68;;;7.72;;
30647;SDS011;17683;53.360;9.736;2022-09-28T16:15:29;15.70;;;8.60;;
30647;SDS011;17683;53.360;9.736;2022-09-28T16:18:02;11.57;;;7.72;;
30647;SDS011;17683;53.360;9.736;2022-09-28T16:20:50;7.82;;;7.13;;
30647;SDS011;17683;53.360;9.736;2022-09-28T16:23:21;10.95;;;8.10;;
30647;SDS011;17683;53.360;9.736;2022-09-28T16:26:03;8.32;;;7.53;;
30647;SDS011;17683;53.360;9.736;2022-09-28T16:34:06;11.70;;;7.95;;
30647;SDS011;17683;53.360;9.736;2022-09-28T16:36:39;9.68;;;7.40;;
30647;SDS011;17683;53.360;9.736;2022-09-28T16:39:10;9.48;;;7.22;;
30647;SDS011;17683;53.360;9.736;2022-09-28T16:41:37;13.75;;;6.90;;
30647;SDS011;17683;53.360;9.736;2022-09-28T16:44:04;8.73;;;7.53;;
30647;SDS011;17683;53.360;9.736;2022-09-28T16:47:00;11.98;;;7.97;;
30647;SDS011;17683;53.360;9.736;2022-09-28T16:49:26;8.98;;;7.70;;
30647;SDS011;17683;53.360;9.736;2022-09-28T16:51:53;10.18;;;7.90;;
30647;SDS011;17683;53.360;9.736;2022-09-28T16:54:23;9.75;;;8.20;;
30647;SDS011;17683;53.360;9.736;2022-09-28T16:57:11;11.32;;;9.02;;
30647;SDS011;17683;53.360;9.736;2022-09-28T16:59:38;9.15;;;7.95;;
30647;SDS011;17683;53.360;9.736;2022-09-28T17:04:43;9.02;;;7.30;;
30647;SDS011;17683;53.360;9.736;2022-09-28T17:07:09;11.40;;;9.30;;
30647;SDS011;17683;53.360;9.736;2022-09-28T17:09:37;11.82;;;8.85;;
30647;SDS011;17683;53.360;9.736;2022-09-28T17:12:05;13.90;;;8.73;;
30647;SDS011;17683;53.360;9.736;2022-09-28T17:14:39;10.80;;;9.60;;
30647;SDS011;17683;53.360;9.736;2022-09-28T17:17:04;10.90;;;8.18;;
30647;SDS011;17683;53.360;9.736;2022-09-28T17:19:30;11.50;;;9.45;;
30647;SDS011;17683;53.360;9.736;2022-09-28T17:21:56;11.38;;;9.20;;
30647;SDS011;17683;53.360;9.736;2022-09-28T17:24:22;10.60;;;8.43;;
30647;SDS011;17683;53.360;9.736;2022-09-28T17:26:48;14.20;;;9.63;;
30647;SDS011;17683;53.360;9.736;2022-09-28T17:29:15;13.45;;;9.32;;
30647;SDS011;17683;53.360;9.736;2022-09-28T17:31:42;15.13;;;9.60;;
30647;SDS011;17683;53.360;9.736;2022-09-28T17:34:10;9.68;;;8.68;;
30647;SDS011;17683;53.360;9.736;2022-09-28T17:36:36;10.45;;;9.00;;
30647;SDS011;17683;53.360;9.736;2022-09-28T17:39:02;11.80;;;8.85;;
30647;SDS011;17683;53.360;9.736;2022-09-28T17:41:28;11.27;;;8.73;;
30647;SDS011;17683;53.360;9.736;2022-09-28T17:43:54;11.50;;;9.70;;
30647;SDS011;17683;53.360;9.736;2022-09-28T17:48:51;11.00;;;9.40;;
30647;SDS011;17683;53.360;9.736;2022-09-28T17:51:17;11.95;;;9.48;;
30647;SDS011;17683;53.360;9.736;2022-09-28T17:53:43;11.23;;;9.40;;
30647;SDS011;17683;53.360;9.736;2022-09-28T17:56:09;16.92;;;10.15;;
30647;SDS011;17683;53.360;9.736;2022-09-28T17:58:34;11.52;;;9.90;;
30647;SDS011;17683;53.360;9.736;2022-09-28T18:01:00;12.02;;;9.48;;
30647;SDS011;17683;53.360;9.736;2022-09-28T18:03:26;13.80;;;9.43;;
30647;SDS011;17683;53.360;9.736;2022-09-28T18:06:02;10.77;;;8.63;;
30647;SDS011;17683;53.360;9.736;2022-09-28T18:08:30;10.57;;;8.82;;
30647;SDS011;17683;53.360;9.736;2022-09-28T18:10:56;11.02;;;9.63;;
30647;SDS011;17683;53.360;9.736;2022-09-28T18:13:23;10.00;;;8.60;;
30647;SDS011;17683;53.360;9.736;2022-09-28T18:15:50;13.60;;;9.57;;
30647;SDS011;17683;53.360;9.736;2022-09-28T18:18:16;13.73;;;10.55;;
30647;SDS011;17683;53.360;9.736;2022-09-28T18:20:42;12.32;;;9.85;;
30647;SDS011;17683;53.360;9.736;2022-09-28T18:23:08;14.73;;;9.63;;
30647;SDS011;17683;53.360;9.736;2022-09-28T18:25:33;11.70;;;8.30;;
30647;SDS011;17683;53.360;9.736;2022-09-28T18:28:02;11.27;;;9.13;;
30647;SDS011;17683;53.360;9.736;2022-09-28T18:30:28;15.57;;;9.02;;
30647;SDS011;17683;53.360;9.736;2022-09-28T18:32:54;9.68;;;8.50;;
30647;SDS011;17683;53.360;9.736;2022-09-28T18:35:19;10.55;;;8.48;;
30647;SDS011;17683;53.360;9.736;2022-09-28T18:37:45;10.75;;;9.30;;
30647;SDS011;17683;53.360;9.736;2022-09-28T18:40:11;12.38;;;9.93;;
30647;SDS011;17683;53.360;9.736;2022-09-28T18:42:37;14.40;;;10.43;;
30647;SDS011;17683;53.360;9.736;2022-09-28T18:45:04;13.95;;;10.13;;
30647;SDS011;17683;53.360;9.736;2022-09-28T18:47:32;14.75;;;10.75;;
30647;SDS011;17683;53.360;9.736;2022-09-28T18:49:58;13.18;;;10.23;;